Time;durP1;ratioP1;P1;durP2;ratioP2;P2;SDS_P1;SDS_P2;PMS_P1;PMS_P2;Temp;Humidity;BMP_temperature;BMP_pressure;BME280_temperature;BME280_humidity;BME280_pressure;Samples;Min_cycle;Max_cycle;Signal;HPM_P1;HPM_P2
2023/07/25 00:01:37;;;;;;;11.00;8.10;;;23.00;99.90;;;;;;5079167;28;20234;-76
2023/07/25 00:04:26;;;;;;;12.25;7.80;;;22.80;99.90;;;;;;5080025;28;20215;-76
2023/07/25 00:07:15;;;;;;;12.10;8.10;;;22.70;99.90;;;;;;5075702;28;20242;-74
2023/07/25 00:10:07;;;;;;;12.73;8.52;;;22.80;99.90;;;;;;5075000;28;20344;-71
2023/07/25 00:12:56;;;;;;;12.05;8.13;;;22.80;99.90;;;;;;5064198;28;20219;-74
2023/07/25 00:15:45;;;;;;;11.48;8.30;;;22.70;99.90;;;;;;5074026;28;20226;-75
2023/07/25 00:18:36;;;;;;;12.18;8.48;;;22.80;99.90;;;;;;5075704;28;20222;-73
2023/07/25 00:21:25;;;;;;;9.77;8.05;;;22.70;99.90;;;;;;5074447;28;20270;-74
2023/07/25 00:24:14;;;;;;;9.82;8.38;;;22.60;99.90;;;;;;5067480;28;20240;-74
2023/07/25 00:27:04;;;;;;;12.15;8.57;;;22.70;99.90;;;;;;5066967;28;20224;-74
2023/07/25 00:29:53;;;;;;;10.90;8.43;;;22.70;99.90;;;;;;5075581;28;20227;-74
2023/07/25 00:32:42;;;;;;;12.35;8.27;;;22.60;99.90;;;;;;5069289;28;20216;-75
2023/07/25 00:35:31;;;;;;;11.25;8.48;;;22.60;99.90;;;;;;5086782;28;20741;-73
2023/07/25 00:38:20;;;;;;;11.90;8.30;;;22.60;99.90;;;;;;5079117;28;20223;-74
2023/07/25 00:41:10;;;;;;;10.98;8.00;;;22.60;99.90;;;;;;5065491;28;20227;-75
2023/07/25 00:44:00;;;;;;;10.30;8.40;;;22.50;99.90;;;;;;5073189;28;20309;-73
2023/07/25 00:46:49;;;;;;;11.00;8.10;;;22.50;99.90;;;;;;5059445;28;20228;-71
2023/07/25 00:49:38;;;;;;;11.38;8.45;;;22.40;99.90;;;;;;5057637;28;20269;-73
2023/07/25 00:52:27;;;;;;;10.57;8.40;;;22.40;99.90;;;;;;5066059;28;20713;-74
2023/07/25 00:55:17;;;;;;;11.43;8.55;;;22.40;99.90;;;;;;5061588;28;20234;-73
2023/07/25 00:58:05;;;;;;;12.57;8.43;;;22.20;99.90;;;;;;5061028;28;20240;-73
2023/07/25 01:01:02;;;;;;;11.70;7.97;;;22.20;99.90;;;;;;5056014;28;20231;-74
2023/07/25 01:03:55;;;;;;;10.90;8.05;;;22.20;99.90;;;;;;5039066;28;20257;-75
2023/07/25 01:06:44;;;;;;;11.68;8.50;;;22.20;99.90;;;;;;5041389;28;20224;-73
2023/07/25 01:09:40;;;;;;;10.60;7.95;;;22.20;99.90;;;;;;5056030;28;20290;-74
2023/07/25 01:12:28;;;;;;;11.85;8.18;;;22.20;99.90;;;;;;5028328;28;20909;-74
2023/07/25 01:15:18;;;;;;;11.93;8.10;;;22.20;99.90;;;;;;5053197;28;20691;-73
2023/07/25 01:18:09;;;;;;;10.35;7.63;;;22.20;99.90;;;;;;5041077;28;20284;-73
2023/07/25 01:20:59;;;;;;;11.75;8.52;;;22.20;99.90;;;;;;5046630;28;20258;-73
2023/07/25 01:23:51;;;;;;;13.63;8.25;;;22.10;99.90;;;;;;5057984;28;20290;-74
2023/07/25 01:26:41;;;;;;;10.57;8.30;;;22.10;99.90;;;;;;5056101;28;20217;-73
2023/07/25 01:29:30;;;;;;;12.63;8.02;;;22.10;99.90;;;;;;5039549;28;20302;-75
2023/07/25 01:32:19;;;;;;;10.05;7.68;;;22.10;99.90;;;;;;5059598;28;20702;-74
2023/07/25 01:35:08;;;;;;;11.70;8.27;;;22.20;99.90;;;;;;5056307;28;20254;-74
2023/07/25 01:38:01;;;;;;;10.73;8.40;;;22.10;99.90;;;;;;5055167;28;20232;-73
2023/07/25 01:40:50;;;;;;;10.95;8.10;;;22.10;99.90;;;;;;5053651;28;20691;-73
2023/07/25 01:43:41;;;;;;;11.27;8.30;;;22.00;99.90;;;;;;5045404;28;20221;-73
2023/07/25 01:46:29;;;;;;;10.65;7.88;;;22.10;99.90;;;;;;5057309;28;20286;-73
2023/07/25 01:49:18;;;;;;;11.85;8.30;;;22.00;99.90;;;;;;5036180;28;20314;-73
2023/07/25 01:52:08;;;;;;;10.90;8.60;;;22.00;99.90;;;;;;5050540;28;20244;-73
2023/07/25 01:54:57;;;;;;;12.00;8.32;;;22.00;99.90;;;;;;5046088;28;20221;-73
2023/07/25 01:57:46;;;;;;;11.15;8.38;;;22.00;99.90;;;;;;5056250;28;20733;-73
2023/07/25 02:00:37;;;;;;;11.13;8.30;;;22.00;99.90;;;;;;5063531;28;20280;-74
2023/07/25 02:03:26;;;;;;;12.63;8.23;;;21.90;99.90;;;;;;5060384;28;20251;-74
2023/07/25 02:06:15;;;;;;;15.63;9.25;;;21.80;99.90;;;;;;5073060;28;20239;-72
2023/07/25 02:09:04;;;;;;;14.48;9.18;;;21.70;99.90;;;;;;5056134;28;20847;-72
2023/07/25 02:11:53;;;;;;;13.90;9.25;;;21.70;99.90;;;;;;5066075;28;20243;-74
2023/07/25 02:14:42;;;;;;;10.88;8.48;;;21.70;99.90;;;;;;5081713;28;20363;-75
2023/07/25 02:17:32;;;;;;;12.07;8.70;;;21.70;99.90;;;;;;5069739;28;20310;-74
2023/07/25 02:20:25;;;;;;;14.48;9.02;;;21.70;99.90;;;;;;5061118;28;20301;-74
2023/07/25 02:23:14;;;;;;;11.95;9.18;;;21.70;99.90;;;;;;5065071;28;20227;-74
2023/07/25 02:26:04;;;;;;;12.82;9.15;;;21.70;99.90;;;;;;5081989;28;20326;-74
2023/07/25 02:28:57;;;;;;;14.70;9.48;;;21.70;99.90;;;;;;5062807;28;20227;-74
2023/07/25 02:31:48;;;;;;;16.45;9.88;;;21.60;99.90;;;;;;5056318;28;20252;-74
2023/07/25 02:34:38;;;;;;;13.90;9.10;;;21.60;99.90;;;;;;5073750;28;20250;-74
2023/07/25 02:37:27;;;;;;;13.77;8.68;;;21.60;99.90;;;;;;5059889;28;20227;-73
2023/07/25 02:40:15;;;;;;;13.60;9.18;;;21.60;99.90;;;;;;5058614;28;20235;-72
2023/07/25 02:43:07;;;;;;;13.43;9.25;;;21.60;99.90;;;;;;5080132;28;20220;-73
2023/07/25 02:45:56;;;;;;;11.95;9.25;;;21.60;99.90;;;;;;5074930;28;20320;-74
2023/07/25 02:48:45;;;;;;;12.55;9.93;;;21.50;99.90;;;;;;5073651;28;20231;-76
2023/07/25 02:51:37;;;;;;;12.20;9.30;;;21.40;99.90;;;;;;5079894;28;20231;-74
2023/07/25 02:54:26;;;;;;;14.63;9.55;;;21.40;99.90;;;;;;5073311;28;20219;-75
2023/07/25 02:57:15;;;;;;;12.02;9.38;;;21.40;99.90;;;;;;5061826;28;20270;-73
2023/07/25 03:00:08;;;;;;;13.98;9.15;;;21.40;99.90;;;;;;5064741;28;20326;-85
2023/07/25 03:02:57;;;;;;;12.40;9.18;;;21.30;99.90;;;;;;5081611;28;20701;-77
2023/07/25 03:05:46;;;;;;;12.88;9.32;;;21.30;99.90;;;;;;5070940;28;20741;-78
2023/07/25 03:08:37;;;;;;;13.10;9.95;;;21.30;99.90;;;;;;5070244;28;20223;-77
2023/07/25 03:11:26;;;;;;;14.23;9.13;;;21.30;99.90;;;;;;5080212;28;20235;-78
2023/07/25 03:14:16;;;;;;;14.57;9.27;;;21.30;99.90;;;;;;5075264;28;20743;-76
2023/07/25 03:17:05;;;;;;;13.25;9.10;;;21.30;99.90;;;;;;5086738;28;20393;-78
2023/07/25 03:19:54;;;;;;;11.80;9.80;;;21.30;99.90;;;;;;5070084;28;20223;-76
2023/07/25 03:22:44;;;;;;;13.23;9.40;;;21.20;99.90;;;;;;5058040;28;20772;-76
2023/07/25 03:25:34;;;;;;;12.05;8.90;;;21.20;99.90;;;;;;5071746;28;20227;-76
2023/07/25 03:28:23;;;;;;;12.60;9.60;;;21.30;99.90;;;;;;5073109;28;20231;-76
2023/07/25 03:31:12;;;;;;;17.13;9.57;;;21.30;99.90;;;;;;5064158;28;20224;-77
2023/07/25 03:34:01;;;;;;;12.68;8.85;;;21.30;99.90;;;;;;5079800;28;20790;-76
2023/07/25 03:36:50;;;;;;;12.65;9.32;;;21.30;99.90;;;;;;5076376;28;20463;-74
2023/07/25 03:39:39;;;;;;;13.48;8.75;;;21.40;99.90;;;;;;5064876;28;20224;-74
2023/07/25 03:42:29;;;;;;;11.90;9.35;;;21.30;99.90;;;;;;5063628;28;20271;-74
2023/07/25 03:45:19;;;;;;;14.55;9.60;;;21.30;99.90;;;;;;5063006;28;20262;-74
2023/07/25 03:48:07;;;;;;;10.98;9.15;;;21.40;99.90;;;;;;5073325;28;20219;-74
2023/07/25 03:50:57;;;;;;;14.52;9.65;;;21.40;99.90;;;;;;5085888;28;20233;-74
2023/07/25 03:53:49;;;;;;;16.27;9.57;;;21.50;99.90;;;;;;5087343;28;20686;-74
2023/07/25 03:56:38;;;;;;;12.82;8.85;;;21.50;99.90;;;;;;5082282;28;20228;-75
2023/07/25 03:59:28;;;;;;;14.93;10.18;;;21.50;99.90;;;;;;5049511;28;20253;-75
2023/07/25 04:02:17;;;;;;;13.63;9.77;;;21.60;99.90;;;;;;5072409;28;20231;-77
2023/07/25 04:05:07;;;;;;;13.18;9.45;;;21.50;99.90;;;;;;5067357;28;20226;-75
2023/07/25 04:07:56;;;;;;;15.40;9.55;;;21.50;99.90;;;;;;5077138;28;20223;-75
2023/07/25 04:10:45;;;;;;;12.98;9.50;;;21.50;99.90;;;;;;5068353;28;20223;-74
2023/07/25 04:13:34;;;;;;;17.20;9.85;;;21.50;99.90;;;;;;5063653;28;20247;-72
2023/07/25 04:16:25;;;;;;;13.77;9.70;;;21.60;99.90;;;;;;5063944;28;20756;-72
2023/07/25 04:19:13;;;;;;;13.93;9.90;;;21.60;99.90;;;;;;5065490;28;20227;-72
2023/07/25 04:22:02;;;;;;;12.57;9.23;;;21.80;99.90;;;;;;5068197;28;20235;-75
2023/07/25 04:24:52;;;;;;;14.07;9.63;;;21.90;99.90;;;;;;5078355;28;20231;-72
2023/07/25 04:27:41;;;;;;;12.27;8.77;;;22.00;99.90;;;;;;5078999;28;20224;-71
2023/07/25 04:30:29;;;;;;;12.70;9.05;;;22.10;99.90;;;;;;5060064;28;20231;-73
2023/07/25 04:33:20;;;;;;;13.85;8.80;;;22.30;99.90;;;;;;5061948;28;20517;-72
2023/07/25 04:36:09;;;;;;;11.38;8.40;;;22.40;99.90;;;;;;5079495;28;20250;-75
2023/07/25 04:38:58;;;;;;;12.15;8.15;;;22.50;99.90;;;;;;5065609;28;20223;-75
2023/07/25 04:41:47;;;;;;;11.85;8.00;;;22.50;99.90;;;;;;5076003;28;20223;-75
2023/07/25 04:44:36;;;;;;;12.80;8.15;;;22.60;99.90;;;;;;5077290;28;20274;-75
2023/07/25 04:47:25;;;;;;;12.00;8.30;;;22.60;99.90;;;;;;5080016;28;20215;-74
2023/07/25 04:50:15;;;;;;;10.60;7.80;;;22.60;99.90;;;;;;5069854;28;20216;-73
2023/07/25 04:53:04;;;;;;;13.95;7.70;;;22.50;99.90;;;;;;5081138;28;20324;-73
2023/07/25 04:55:53;;;;;;;10.05;7.35;;;22.50;99.90;;;;;;5062600;28;20721;-72
2023/07/25 04:58:42;;;;;;;10.27;7.38;;;22.50;99.90;;;;;;5056187;28;20222;-73
2023/07/25 05:01:31;;;;;;;11.20;6.97;;;22.70;99.90;;;;;;5057843;28;20903;-73
2023/07/25 05:04:20;;;;;;;10.70;6.78;;;22.80;99.90;;;;;;5063353;28;20235;-72
2023/07/25 05:07:11;;;;;;;10.60;7.03;;;22.90;99.90;;;;;;5046618;28;20246;-72
2023/07/25 05:10:00;;;;;;;8.02;6.45;;;23.10;99.90;;;;;;5050161;28;20212;-72
2023/07/25 05:12:50;;;;;;;8.75;6.43;;;23.10;99.90;;;;;;5058686;28;20224;-73
2023/07/25 05:15:39;;;;;;;9.45;6.50;;;22.80;99.90;;;;;;5046929;28;20306;-72
2023/07/25 05:18:28;;;;;;;13.05;6.28;;;22.80;99.90;;;;;;5048412;28;20224;-73
2023/07/25 05:21:17;;;;;;;10.07;5.85;;;23.00;99.90;;;;;;5032522;28;21045;-73
2023/07/25 05:24:08;;;;;;;7.97;5.97;;;23.10;99.90;;;;;;5048793;28;20871;-74
2023/07/25 05:26:57;;;;;;;10.60;5.95;;;23.20;99.90;;;;;;5053205;28;20235;-75
2023/07/25 05:29:51;;;;;;;6.90;5.25;;;23.40;99.90;;;;;;5052791;28;20213;-76
2023/07/25 05:32:40;;;;;;;9.00;5.30;;;23.50;99.90;;;;;;5032995;28;20671;-74
2023/07/25 05:35:28;;;;;;;9.55;5.78;;;23.70;99.90;;;;;;5058556;28;20595;-75
2023/07/25 05:38:17;;;;;;;10.10;5.07;;;24.90;99.90;;;;;;5059521;28;20808;-76
2023/07/25 05:41:08;;;;;;;8.50;4.60;;;28.70;99.90;;;;;;5046380;28;20228;-79
2023/07/25 05:43:57;;;;;;;7.40;4.68;;;27.80;99.90;;;;;;5055467;28;20226;-78
2023/07/25 05:46:46;;;;;;;8.82;4.38;;;26.60;99.90;;;;;;5047026;28;20285;-72
2023/07/25 05:49:36;;;;;;;9.23;4.68;;;25.60;99.90;;;;;;5037545;28;20232;-77
2023/07/25 05:52:25;;;;;;;6.38;4.47;;;25.00;99.90;;;;;;5046340;28;20224;-77
2023/07/25 05:55:14;;;;;;;10.90;4.70;;;24.70;99.90;;;;;;5048080;28;20369;-75
2023/07/25 05:58:05;;;;;;;8.18;4.70;;;24.50;99.90;;;;;;5051937;28;20463;-76
2023/07/25 06:00:53;;;;;;;11.13;4.45;;;24.40;99.90;;;;;;5068898;28;20241;-75
2023/07/25 06:03:42;;;;;;;7.43;4.55;;;24.40;99.90;;;;;;5052211;28;20239;-74
2023/07/25 06:06:31;;;;;;;8.00;4.13;;;24.80;99.90;;;;;;5057644;28;20231;-73
2023/07/25 06:09:20;;;;;;;7.75;4.45;;;27.30;99.90;;;;;;5049577;28;20217;-79
2023/07/25 06:12:11;;;;;;;6.63;4.20;;;27.80;99.90;;;;;;5050690;28;20216;-83
2023/07/25 06:15:06;;;;;;;7.55;4.45;;;26.10;99.90;;;;;;5051648;28;20216;-94
2023/07/25 06:17:55;;;;;;;8.65;4.22;;;25.20;99.90;;;;;;5051539;28;20591;-87
2023/07/25 06:20:47;;;;;;;9.73;4.18;;;24.70;99.90;;;;;;5066519;28;20231;-87
2023/07/25 06:23:36;;;;;;;7.43;4.90;;;24.60;99.90;;;;;;5055462;28;20444;-76
2023/07/25 06:26:25;;;;;;;6.60;4.60;;;24.50;99.90;;;;;;5053760;28;20228;-77
2023/07/25 06:29:14;;;;;;;8.57;3.97;;;24.50;99.90;;;;;;5053713;28;20303;-77
2023/07/25 06:32:05;;;;;;;6.30;4.75;;;24.50;99.90;;;;;;5047190;28;20377;-76
2023/07/25 06:34:54;;;;;;;8.60;4.72;;;24.20;99.90;;;;;;5026605;28;20225;-77
2023/07/25 06:37:47;;;;;;;7.32;4.30;;;24.40;99.90;;;;;;5048708;28;20216;-77
2023/07/25 06:40:36;;;;;;;7.78;4.05;;;24.30;99.90;;;;;;5029962;28;20365;-77
2023/07/25 06:43:28;;;;;;;9.73;4.00;;;24.40;99.90;;;;;;5061494;28;20235;-76
2023/07/25 06:46:17;;;;;;;6.93;4.35;;;24.40;99.90;;;;;;5037500;28;20694;-73
2023/07/25 06:49:08;;;;;;;6.88;4.40;;;24.50;99.90;;;;;;5046463;28;20362;-73
2023/07/25 06:51:57;;;;;;;9.05;3.75;;;24.60;99.90;;;;;;5043354;28;20224;-80
2023/07/25 06:54:46;;;;;;;4.43;3.42;;;24.60;99.90;;;;;;5066550;28;20224;-77
2023/07/25 06:57:35;;;;;;;7.13;3.55;;;24.80;99.90;;;;;;5054710;28;20228;-71
2023/07/25 07:00:24;;;;;;;5.68;3.63;;;24.90;99.90;;;;;;5051006;28;20247;-73
2023/07/25 07:03:13;;;;;;;8.20;3.40;;;24.90;99.90;;;;;;5053741;28;20228;-73
2023/07/25 07:06:03;;;;;;;5.03;3.05;;;25.10;99.90;;;;;;5051871;28;20252;-72
2023/07/25 07:08:52;;;;;;;6.43;3.53;;;25.20;99.90;;;;;;5040304;28;20216;-73
2023/07/25 07:11:42;;;;;;;8.52;3.60;;;25.30;99.90;;;;;;5047057;28;20651;-76
2023/07/25 07:14:31;;;;;;;5.63;2.97;;;25.40;99.90;;;;;;5059417;28;20208;-78
2023/07/25 07:17:20;;;;;;;6.72;3.33;;;25.70;99.90;;;;;;5052995;28;20231;-72
2023/07/25 07:20:10;;;;;;;4.05;2.90;;;25.80;99.90;;;;;;5052842;28;20300;-74
2023/07/25 07:23:00;;;;;;;3.40;2.90;;;25.90;99.90;;;;;;5052950;28;20216;-72
2023/07/25 07:25:51;;;;;;;4.25;2.85;;;26.20;99.90;;;;;;5062765;28;20805;-73
2023/07/25 07:28:41;;;;;;;6.00;2.70;;;26.40;99.90;;;;;;5056105;28;20687;-72
2023/07/25 07:31:30;;;;;;;3.88;2.47;;;26.60;99.90;;;;;;5061482;28;20353;-71
2023/07/25 07:34:19;;;;;;;7.18;3.78;;;26.90;99.90;;;;;;5056701;28;20316;-73
2023/07/25 07:37:08;;;;;;;11.20;2.90;;;27.20;99.90;;;;;;5047159;28;20259;-70
2023/07/25 07:39:58;;;;;;;5.63;2.60;;;27.40;99.90;;;;;;5035496;28;20225;-72
2023/07/25 07:42:47;;;;;;;3.08;2.50;;;27.50;99.90;;;;;;5054300;28;20222;-71
2023/07/25 07:45:36;;;;;;;3.72;2.45;;;27.70;99.90;;;;;;5049742;28;20227;-70
2023/07/25 07:48:28;;;;;;;3.40;2.50;;;28.00;99.90;;;;;;5054955;28;20224;-72
2023/07/25 07:51:17;;;;;;;5.50;2.90;;;28.30;99.20;;;;;;5042227;28;20225;-71
2023/07/25 07:54:05;;;;;;;6.78;2.80;;;28.80;99.90;;;;;;5051708;28;20277;-72
2023/07/25 07:56:56;;;;;;;3.80;2.33;;;29.10;98.00;;;;;;5041154;28;20326;-71
2023/07/25 07:59:45;;;;;;;4.10;2.60;;;29.40;97.90;;;;;;5062779;28;20908;-76
2023/07/25 08:02:36;;;;;;;2.65;2.45;;;29.60;98.40;;;;;;5079522;28;20215;-74
2023/07/25 08:05:26;;;;;;;3.55;2.65;;;30.10;97.60;;;;;;5063238;28;20307;-76
2023/07/25 08:08:15;;;;;;;5.00;2.35;;;30.10;96.30;;;;;;5063628;28;20898;-76
2023/07/25 08:11:05;;;;;;;5.85;2.53;;;30.10;96.20;;;;;;5070914;28;20227;-75
2023/07/25 08:13:55;;;;;;;3.58;2.30;;;30.60;95.80;;;;;;5077825;28;20254;-74
2023/07/25 08:16:45;;;;;;;3.00;2.28;;;30.90;94.50;;;;;;5069822;28;20234;-74
2023/07/25 08:19:34;;;;;;;2.75;2.10;;;30.30;96.50;;;;;;5078518;28;20233;-76
2023/07/25 08:22:23;;;;;;;2.50;2.30;;;30.20;94.30;;;;;;5072077;28;20298;-72
2023/07/25 08:25:12;;;;;;;3.78;2.40;;;29.90;94.40;;;;;;5074663;28;20219;-73
2023/07/25 08:28:01;;;;;;;4.70;2.40;;;30.50;93.30;;;;;;5076685;28;20237;-73
2023/07/25 08:30:59;;;;;;;2.53;1.90;;;30.90;92.00;;;;;;5056676;28;20230;-82
2023/07/25 08:33:48;;;;;;;3.60;2.10;;;31.10;91.40;;;;;;5076175;28;20224;-77
2023/07/25 08:36:37;;;;;;;4.25;2.30;;;31.40;90.60;;;;;;5061814;28;20246;-81
2023/07/25 08:39:26;;;;;;;3.80;2.15;;;31.60;90.50;;;;;;5061002;28;20344;-73
2023/07/25 08:42:18;;;;;;;1.90;1.75;;;31.50;88.90;;;;;;5073509;28;20240;-72
2023/07/25 08:45:08;;;;;;;3.92;2.30;;;31.40;90.00;;;;;;5060053;28;20237;-73
2023/07/25 08:48:05;;;;;;;4.07;2.80;;;31.70;86.10;;;;;;5067174;28;20231;-72
2023/07/25 08:50:57;;;;;;;2.10;1.90;;;31.80;89.20;;;;;;5060402;28;20219;-72
2023/07/25 08:53:57;;;;;;;3.58;2.20;;;32.20;85.40;;;;;;5077646;28;20219;-73
2023/07/25 08:56:46;;;;;;;2.60;1.70;;;32.50;84.50;;;;;;5064949;28;20259;-73
2023/07/25 08:59:35;;;;;;;5.07;1.92;;;32.70;86.90;;;;;;5069759;28;20226;-71
2023/07/25 09:02:26;;;;;;;3.63;2.20;;;32.50;87.60;;;;;;5044537;28;20635;-72
2023/07/25 09:05:16;;;;;;;2.10;1.80;;;32.60;86.30;;;;;;5073508;28;20231;-71
2023/07/25 09:08:05;;;;;;;3.13;1.90;;;32.70;84.00;;;;;;5071273;28;20318;-71
2023/07/25 09:10:56;;;;;;;5.63;2.15;;;32.80;81.70;;;;;;5070228;28;20228;-71
2023/07/25 09:13:45;;;;;;;4.00;1.92;;;32.90;83.90;;;;;;5071134;28;20219;-71
2023/07/25 09:16:39;;;;;;;2.78;1.58;;;32.90;83.10;;;;;;5057387;28;20219;-71
2023/07/25 09:19:28;;;;;;;2.75;1.67;;;33.10;84.30;;;;;;5076792;28;20341;-71
2023/07/25 09:22:29;;;;;;;6.07;1.90;;;33.20;82.70;;;;;;5071093;28;20233;-72
2023/07/25 09:25:18;;;;;;;3.08;1.90;;;33.40;80.80;;;;;;5070622;28;20328;-72
2023/07/25 09:28:07;;;;;;;2.25;1.80;;;33.70;76.60;;;;;;5078776;28;20219;-72
2023/07/25 09:30:57;;;;;;;4.00;2.10;;;33.30;74.90;;;;;;5072799;28;20222;-74
2023/07/25 09:33:48;;;;;;;2.03;1.70;;;33.80;79.30;;;;;;5064078;28;20295;-83
2023/07/25 09:36:37;;;;;;;4.30;2.10;;;34.50;76.60;;;;;;5084143;28;20231;-82
2023/07/25 09:39:34;;;;;;;2.03;1.70;;;33.40;78.30;;;;;;5074594;28;20268;-84
2023/07/25 09:42:24;;;;;;;2.58;1.95;;;34.20;77.20;;;;;;5067685;28;20219;-81
2023/07/25 09:45:14;;;;;;;2.85;1.67;;;35.00;73.50;;;;;;5066498;28;20219;-81
2023/07/25 09:48:04;;;;;;;2.00;1.80;;;35.30;72.40;;;;;;5072705;28;20227;-83
2023/07/25 09:50:52;;;;;;;124.65;9.65;;;35.60;71.80;;;;;;5051652;28;20714;-80
2023/07/25 09:53:43;;;;;;;19.17;2.60;;;36.10;72.10;;;;;;5074557;28;20244;-79
2023/07/25 09:56:33;;;;;;;4.18;1.63;;;35.50;72.60;;;;;;5075100;28;20742;-79
2023/07/25 09:59:28;;;;;;;3.60;1.90;;;35.20;74.20;;;;;;5071755;28;20227;-79
2023/07/25 10:02:18;;;;;;;4.85;1.73;;;35.10;71.20;;;;;;5072532;28;20670;-79
2023/07/25 10:05:08;;;;;;;2.15;1.80;;;35.50;69.40;;;;;;5078797;28;20737;-79
2023/07/25 10:07:58;;;;;;;3.88;2.30;;;37.90;67.30;;;;;;5063043;28;20219;-83
2023/07/25 10:10:46;;;;;;;4.72;2.25;;;36.20;66.80;;;;;;5083925;28;20302;-78
2023/07/25 10:13:37;;;;;;;3.05;2.20;;;36.20;67.80;;;;;;5065169;28;20314;-78
2023/07/25 10:16:29;;;;;;;4.35;1.98;;;36.10;68.80;;;;;;5079583;28;20220;-79
2023/07/25 10:19:19;;;;;;;2.90;1.60;;;37.70;66.80;;;;;;5083353;28;20218;-81
2023/07/25 10:22:08;;;;;;;3.72;1.60;;;39.20;62.30;;;;;;5080497;28;20219;-76
2023/07/25 10:24:57;;;;;;;1.70;1.60;;;39.40;60.90;;;;;;5083349;28;20296;-74
2023/07/25 10:27:47;;;;;;;4.78;1.65;;;40.50;61.20;;;;;;5075564;28;20251;-76
2023/07/25 10:30:44;;;;;;;2.33;1.83;;;41.50;57.50;;;;;;5070669;28;20274;-80
2023/07/25 10:33:37;;;;;;;3.10;1.88;;;41.70;57.50;;;;;;5074327;28;20242;-80
2023/07/25 10:36:28;;;;;;;3.63;1.55;;;42.20;56.20;;;;;;5071938;28;20234;-78
2023/07/25 10:39:26;;;;;;;4.25;2.05;;;41.50;55.80;;;;;;5084430;28;20238;-81
2023/07/25 10:42:16;;;;;;;1.77;1.67;;;38.10;57.00;;;;;;5079280;28;20226;-79
2023/07/25 10:45:05;;;;;;;5.60;2.35;;;38.90;59.00;;;;;;5064799;28;20815;-80
2023/07/25 10:47:58;;;;;;;2.53;1.70;;;36.10;60.70;;;;;;5076413;28;20212;-79
2023/07/25 10:50:54;;;;;;;2.10;1.60;;;38.30;58.30;;;;;;5066755;28;20265;-77
2023/07/25 10:54:03;;;;;;;2.25;1.80;;;39.30;56.10;;;;;;5063195;28;20271;-79
2023/07/25 10:57:11;;;;;;;3.05;1.83;;;40.30;56.20;;;;;;5057022;28;20219;-78
2023/07/25 11:00:04;;;;;;;4.47;1.70;;;42.40;54.50;;;;;;5064522;28;20219;-75
2023/07/25 11:02:55;;;;;;;4.40;1.77;;;42.20;52.50;;;;;;5078188;28;20593;-78
2023/07/25 11:05:44;;;;;;;1.77;1.60;;;42.50;53.40;;;;;;5062770;28;20242;-76
2023/07/25 11:08:34;;;;;;;1.80;1.42;;;41.80;53.30;;;;;;5074497;28;20567;-75
2023/07/25 11:11:23;;;;;;;2.13;1.70;;;38.50;55.40;;;;;;5051444;28;20385;-80
2023/07/25 11:14:14;;;;;;;4.18;1.60;;;40.10;55.00;;;;;;5069153;28;20231;-76
2023/07/25 11:17:04;;;;;;;3.05;1.90;;;39.50;55.80;;;;;;5064106;28;20257;-75
2023/07/25 11:20:10;;;;;;;2.50;1.90;;;40.60;56.20;;;;;;5072738;28;20220;-76
2023/07/25 11:22:59;;;;;;;3.15;1.70;;;41.00;53.50;;;;;;5070289;28;20214;-75
2023/07/25 11:25:54;;;;;;;4.80;1.83;;;39.30;55.30;;;;;;5072207;28;20219;-75
2023/07/25 11:28:43;;;;;;;3.10;2.22;;;40.50;54.30;;;;;;5071240;28;20227;-76
2023/07/25 11:31:32;;;;;;;2.25;1.80;;;41.50;53.00;;;;;;5063801;28;20219;-87
2023/07/25 11:34:22;;;;;;;3.83;2.17;;;39.30;52.60;;;;;;5063567;28;20795;-76
2023/07/25 11:37:13;;;;;;;5.00;2.83;;;36.40;55.70;;;;;;5076511;28;20219;-74
2023/07/25 11:40:13;;;;;;;5.45;2.92;;;35.60;55.80;;;;;;5064710;28;26713;-75
2023/07/25 11:43:02;;;;;;;5.88;2.80;;;35.80;58.60;;;;;;5081208;28;20250;-77
2023/07/25 11:45:52;;;;;;;3.47;3.15;;;36.20;60.50;;;;;;5063910;28;20701;-76
2023/07/25 11:48:41;;;;;;;5.60;3.63;;;37.80;57.10;;;;;;5073528;28;20223;-76
2023/07/25 11:51:31;;;;;;;3.53;3.20;;;38.40;57.10;;;;;;5077786;28;20279;-76
2023/07/25 11:54:22;;;;;;;4.78;3.42;;;38.10;55.40;;;;;;5075443;28;20615;-76
2023/07/25 11:57:12;;;;;;;3.33;2.78;;;37.90;56.60;;;;;;5074582;28;20220;-75
2023/07/25 12:00:06;;;;;;;3.47;2.50;;;37.20;56.00;;;;;;5083453;28;20305;-75
2023/07/25 12:02:55;;;;;;;5.13;2.60;;;37.90;56.30;;;;;;5076086;28;20717;-74
2023/07/25 12:05:52;;;;;;;4.25;2.25;;;35.20;58.90;;;;;;5072777;28;20665;-75
2023/07/25 12:08:44;;;;;;;4.28;2.10;;;39.20;56.70;;;;;;5062896;28;20223;-75
2023/07/25 12:11:42;;;;;;;2.30;1.85;;;41.60;53.70;;;;;;5071026;28;20219;-75
2023/07/25 12:14:32;;;;;;;4.03;2.17;;;41.50;52.90;;;;;;5066836;28;20274;-78
2023/07/25 12:17:21;;;;;;;10.65;6.80;;;38.90;53.30;;;;;;5082575;28;20223;-79
2023/07/25 12:20:15;;;;;;;2.83;2.15;;;38.50;54.00;;;;;;5080707;28;20223;-79
2023/07/25 12:23:07;;;;;;;3.05;1.92;;;38.10;55.70;;;;;;5052655;28;20706;-74
2023/07/25 12:25:58;;;;;;;3.08;1.70;;;38.30;53.40;;;;;;5057827;28;20219;-75
2023/07/25 12:28:50;;;;;;;3.10;1.90;;;38.30;56.60;;;;;;5083882;28;20731;-73
2023/07/25 12:31:43;;;;;;;3.05;2.00;;;38.80;55.10;;;;;;5079578;28;20617;-76
2023/07/25 12:34:32;;;;;;;3.75;2.10;;;38.40;55.10;;;;;;5075504;28;20218;-77
2023/07/25 12:37:21;;;;;;;3.88;2.15;;;39.90;53.50;;;;;;5077599;28;20239;-76
2023/07/25 12:40:11;;;;;;;3.60;1.80;;;39.20;53.90;;;;;;5079334;28;20380;-85
2023/07/25 12:43:00;;;;;;;2.88;1.77;;;38.40;54.80;;;;;;5073763;28;20222;-82
2023/07/25 12:45:50;;;;;;;5.03;1.80;;;38.10;53.60;;;;;;5072939;28;20227;-80
2023/07/25 12:48:40;;;;;;;3.13;1.90;;;38.40;54.50;;;;;;5072724;28;21455;-73
2023/07/25 12:51:31;;;;;;;2.28;1.92;;;36.40;55.70;;;;;;5072410;28;20238;-77
2023/07/25 12:54:21;;;;;;;2.65;2.00;;;34.90;57.70;;;;;;5082936;28;20230;-78
2023/07/25 12:57:10;;;;;;;3.00;1.60;;;33.70;58.30;;;;;;5083253;28;20318;-77
2023/07/25 12:59:59;;;;;;;3.35;1.70;;;33.10;60.10;;;;;;5077975;28;20713;-75
2023/07/25 13:02:49;;;;;;;2.20;1.88;;;32.40;60.10;;;;;;5075634;28;20319;-75
2023/07/25 13:05:39;;;;;;;4.40;2.00;;;31.90;62.40;;;;;;5064868;28;20215;-75
2023/07/25 13:08:29;;;;;;;3.00;1.90;;;31.30;63.70;;;;;;5075986;28;20409;-74
2023/07/25 13:11:18;;;;;;;2.53;1.92;;;31.10;64.40;;;;;;5072827;28;20231;-78
2023/07/25 13:14:07;;;;;;;5.00;1.90;;;31.00;63.40;;;;;;5073082;28;20306;-79
2023/07/25 13:16:56;;;;;;;2.97;2.20;;;30.80;65.40;;;;;;5058846;28;20368;-77
2023/07/25 13:19:47;;;;;;;3.35;2.10;;;30.40;66.70;;;;;;5063239;28;20314;-79
2023/07/25 13:22:36;;;;;;;5.95;2.42;;;30.30;67.50;;;;;;5068991;28;20258;-78
2023/07/25 13:25:27;;;;;;;3.03;2.00;;;30.20;66.50;;;;;;5080019;28;20238;-76
2023/07/25 13:28:17;;;;;;;4.18;3.58;;;30.20;67.80;;;;;;5072552;28;20623;-76
2023/07/25 13:31:06;;;;;;;11.27;9.10;;;30.20;68.40;;;;;;5060628;28;20927;-77
2023/07/25 13:33:56;;;;;;;3.42;2.58;;;30.10;68.00;;;;;;5080570;28;20210;-77
2023/07/25 13:36:47;;;;;;;5.50;1.90;;;29.90;67.50;;;;;;5075168;28;20266;-76
2023/07/25 13:39:36;;;;;;;2.60;2.35;;;29.70;68.10;;;;;;5078358;28;20241;-77
2023/07/25 13:42:26;;;;;;;3.72;1.75;;;29.80;66.10;;;;;;5075511;28;20749;-77
2023/07/25 13:45:15;;;;;;;3.58;1.90;;;29.80;67.20;;;;;;5067580;28;20947;-76
2023/07/25 13:48:05;;;;;;;2.15;1.77;;;29.80;69.50;;;;;;5077483;28;20636;-77
2023/07/25 13:50:55;;;;;;;5.80;3.30;;;29.70;68.30;;;;;;5064533;28;20226;-76
2023/07/25 13:53:45;;;;;;;3.85;2.40;;;29.60;66.90;;;;;;5073126;28;20233;-76
2023/07/25 13:56:35;;;;;;;3.40;2.63;;;29.50;66.80;;;;;;5061436;28;20270;-77
2023/07/25 13:59:27;;;;;;;6.53;2.85;;;29.50;68.80;;;;;;5075387;28;20992;-77
2023/07/25 14:02:16;;;;;;;5.70;2.13;;;29.40;69.10;;;;;;5076346;28;20225;-79
2023/07/25 14:05:06;;;;;;;2.78;2.00;;;29.40;67.30;;;;;;5074656;28;20239;-77
2023/07/25 14:07:55;;;;;;;2.08;1.88;;;29.50;68.10;;;;;;5068824;28;20234;-77
2023/07/25 14:10:45;;;;;;;5.10;2.05;;;29.40;67.10;;;;;;5076650;28;20227;-77
2023/07/25 14:13:35;;;;;;;2.47;1.80;;;29.30;68.10;;;;;;5072955;28;20222;-78
2023/07/25 14:16:24;;;;;;;3.85;2.00;;;29.40;69.00;;;;;;5074466;28;20745;-77
2023/07/25 14:19:13;;;;;;;3.15;1.98;;;29.20;68.40;;;;;;5084887;28;20237;-84
2023/07/25 14:22:02;;;;;;;5.95;2.10;;;29.30;69.60;;;;;;5074406;28;20238;-84
2023/07/25 14:24:51;;;;;;;3.45;2.00;;;29.20;71.30;;;;;;5067241;28;20634;-84
2023/07/25 14:27:42;;;;;;;3.85;1.88;;;29.00;68.30;;;;;;5077852;28;20218;-84
2023/07/25 14:30:33;;;;;;;4.50;1.85;;;29.00;70.20;;;;;;5076645;28;20713;-84
2023/07/25 14:33:23;;;;;;;2.97;1.92;;;28.90;69.10;;;;;;5074575;28;20229;-84
2023/07/25 14:36:12;;;;;;;3.47;2.05;;;28.80;71.50;;;;;;5079519;28;20231;-83
2023/07/25 14:39:01;;;;;;;3.70;2.30;;;28.70;69.80;;;;;;5077437;28;20218;-83
2023/07/25 14:41:50;;;;;;;4.43;1.98;;;28.60;68.50;;;;;;5076960;28;20282;-83